sensor_id;sensor_type;location;lat;lon;timestamp;temperature;humidity
14489;DHT22;7330;50.804;4.550;2023-02-28T00:03:58;3.00;92.80
14489;DHT22;7330;50.804;4.550;2023-02-28T00:06:25;3.00;92.90
14489;DHT22;7330;50.804;4.550;2023-02-28T00:08:52;3.00;92.90
14489;DHT22;7330;50.804;4.550;2023-02-28T00:16:32;3.00;93.10
14489;DHT22;7330;50.804;4.550;2023-02-28T00:21:27;2.90;93.10
14489;DHT22;7330;50.804;4.550;2023-02-28T00:23:54;2.90;93.10
14489;DHT22;7330;50.804;4.550;2023-02-28T00:26:20;2.90;93.30
14489;DHT22;7330;50.804;4.550;2023-02-28T00:31:14;2.80;93.40
14489;DHT22;7330;50.804;4.550;2023-02-28T00:33:43;2.80;93.40
14489;DHT22;7330;50.804;4.550;2023-02-28T00:36:10;2.80;93.30
14489;DHT22;7330;50.804;4.550;2023-02-28T00:38:37;2.80;93.40
14489;DHT22;7330;50.804;4.550;2023-02-28T00:41:04;2.80;93.40
14489;DHT22;7330;50.804;4.550;2023-02-28T00:45:58;2.80;93.40
14489;DHT22;7330;50.804;4.550;2023-02-28T00:48:25;2.80;93.50
14489;DHT22;7330;50.804;4.550;2023-02-28T00:53:20;2.80;93.50
14489;DHT22;7330;50.804;4.550;2023-02-28T00:58:14;2.70;93.60
14489;DHT22;7330;50.804;4.550;2023-02-28T01:00:41;2.70;93.60
14489;DHT22;7330;50.804;4.550;2023-02-28T01:03:07;2.70;93.60
14489;DHT22;7330;50.804;4.550;2023-02-28T01:05:34;2.70;93.60
14489;DHT22;7330;50.804;4.550;2023-02-28T01:08:01;2.70;93.60
14489;DHT22;7330;50.804;4.550;2023-02-28T01:10:29;2.60;93.70
14489;DHT22;7330;50.804;4.550;2023-02-28T01:15:24;2.60;93.80
14489;DHT22;7330;50.804;4.550;2023-02-28T01:17:50;2.60;94.00
14489;DHT22;7330;50.804;4.550;2023-02-28T01:20:17;2.60;94.00
14489;DHT22;7330;50.804;4.550;2023-02-28T01:22:44;2.60;94.00
14489;DHT22;7330;50.804;4.550;2023-02-28T01:25:10;2.60;94.00
14489;DHT22;7330;50.804;4.550;2023-02-28T01:27:39;2.60;94.10
14489;DHT22;7330;50.804;4.550;2023-02-28T01:30:06;2.60;94.00
14489;DHT22;7330;50.804;4.550;2023-02-28T01:32:33;2.50;94.10
14489;DHT22;7330;50.804;4.550;2023-02-28T01:37:27;2.50;94.10
14489;DHT22;7330;50.804;4.550;2023-02-28T01:42:21;2.40;94.10
14489;DHT22;7330;50.804;4.550;2023-02-28T01:45:01;2.40;94.30
14489;DHT22;7330;50.804;4.550;2023-02-28T01:47:29;2.40;94.10
14489;DHT22;7330;50.804;4.550;2023-02-28T01:49:56;2.40;94.30
14489;DHT22;7330;50.804;4.550;2023-02-28T01:52:23;2.40;94.30
14489;DHT22;7330;50.804;4.550;2023-02-28T01:54:52;2.30;94.40
14489;DHT22;7330;50.804;4.550;2023-02-28T01:57:20;2.30;94.50
14489;DHT22;7330;50.804;4.550;2023-02-28T02:04:45;2.20;94.60
14489;DHT22;7330;50.804;4.550;2023-02-28T02:07:16;2.20;94.80
14489;DHT22;7330;50.804;4.550;2023-02-28T02:12:12;2.20;94.80
14489;DHT22;7330;50.804;4.550;2023-02-28T02:14:47;2.20;94.80
14489;DHT22;7330;50.804;4.550;2023-02-28T02:17:22;2.10;94.80
14489;DHT22;7330;50.804;4.550;2023-02-28T02:23:01;2.10;94.90
14489;DHT22;7330;50.804;4.550;2023-02-28T02:25:31;2.10;94.80
14489;DHT22;7330;50.804;4.550;2023-02-28T02:28:05;2.10;94.90
14489;DHT22;7330;50.804;4.550;2023-02-28T02:30:48;2.10;94.90
14489;DHT22;7330;50.804;4.550;2023-02-28T02:33:24;2.00;95.10
14489;DHT22;7330;50.804;4.550;2023-02-28T02:35:55;2.10;95.00
14489;DHT22;7330;50.804;4.550;2023-02-28T02:38:27;2.00;95.10
14489;DHT22;7330;50.804;4.550;2023-02-28T02:45:52;2.10;95.20
14489;DHT22;7330;50.804;4.550;2023-02-28T02:48:21;2.00;95.10
14489;DHT22;7330;50.804;4.550;2023-02-28T02:53:21;2.00;95.10
14489;DHT22;7330;50.804;4.550;2023-02-28T02:55:49;2.00;95.30
14489;DHT22;7330;50.804;4.550;2023-02-28T02:58:20;2.00;95.20
14489;DHT22;7330;50.804;4.550;2023-02-28T03:00:48;2.00;95.30
14489;DHT22;7330;50.804;4.550;2023-02-28T03:03:18;2.00;95.20
14489;DHT22;7330;50.804;4.550;2023-02-28T03:05:54;2.00;95.30
14489;DHT22;7330;50.804;4.550;2023-02-28T03:13:25;2.00;95.50
14489;DHT22;7330;50.804;4.550;2023-02-28T03:16:03;2.00;95.60
14489;DHT22;7330;50.804;4.550;2023-02-28T03:21:06;1.90;95.50
14489;DHT22;7330;50.804;4.550;2023-02-28T03:23:37;1.90;95.60
14489;DHT22;7330;50.804;4.550;2023-02-28T03:28:35;1.90;95.70
14489;DHT22;7330;50.804;4.550;2023-02-28T03:31:06;1.90;95.60
14489;DHT22;7330;50.804;4.550;2023-02-28T03:38:30;1.90;95.90
14489;DHT22;7330;50.804;4.550;2023-02-28T03:43:26;1.90;95.90
14489;DHT22;7330;50.804;4.550;2023-02-28T03:45:56;1.80;95.90
14489;DHT22;7330;50.804;4.550;2023-02-28T03:48:23;1.80;95.90
14489;DHT22;7330;50.804;4.550;2023-02-28T03:50:53;1.80;96.00
14489;DHT22;7330;50.804;4.550;2023-02-28T03:53:22;1.80;95.90
14489;DHT22;7330;50.804;4.550;2023-02-28T03:55:52;1.80;96.00
14489;DHT22;7330;50.804;4.550;2023-02-28T04:00:48;1.70;95.90
14489;DHT22;7330;50.804;4.550;2023-02-28T04:05:48;1.70;96.00
14489;DHT22;7330;50.804;4.550;2023-02-28T04:08:16;1.70;96.10
14489;DHT22;7330;50.804;4.550;2023-02-28T04:10:43;1.70;96.10
14489;DHT22;7330;50.804;4.550;2023-02-28T04:13:11;1.70;96.20
14489;DHT22;7330;50.804;4.550;2023-02-28T04:15:38;1.70;96.10
14489;DHT22;7330;50.804;4.550;2023-02-28T04:20:32;1.70;96.30
14489;DHT22;7330;50.804;4.550;2023-02-28T04:23:00;1.70;96.40
14489;DHT22;7330;50.804;4.550;2023-02-28T04:28:09;1.60;96.40
14489;DHT22;7330;50.804;4.550;2023-02-28T04:30:37;1.60;96.50
14489;DHT22;7330;50.804;4.550;2023-02-28T04:33:04;1.60;96.50
14489;DHT22;7330;50.804;4.550;2023-02-28T04:35:30;1.60;96.70
14489;DHT22;7330;50.804;4.550;2023-02-28T04:37:57;1.60;96.60
14489;DHT22;7330;50.804;4.550;2023-02-28T04:40:25;1.60;96.60
14489;DHT22;7330;50.804;4.550;2023-02-28T04:42:52;1.60;96.50
14489;DHT22;7330;50.804;4.550;2023-02-28T04:47:45;1.60;96.60
14489;DHT22;7330;50.804;4.550;2023-02-28T04:50:12;1.60;96.70
14489;DHT22;7330;50.804;4.550;2023-02-28T04:55:06;1.60;96.80
14489;DHT22;7330;50.804;4.550;2023-02-28T04:57:34;1.50;97.00
14489;DHT22;7330;50.804;4.550;2023-02-28T05:00:02;1.50;97.00
14489;DHT22;7330;50.804;4.550;2023-02-28T05:02:33;1.50;97.00
14489;DHT22;7330;50.804;4.550;2023-02-28T05:07:27;1.50;97.00
14489;DHT22;7330;50.804;4.550;2023-02-28T05:09:54;1.50;97.00
14489;DHT22;7330;50.804;4.550;2023-02-28T05:12:21;1.40;97.00
14489;DHT22;7330;50.804;4.550;2023-02-28T05:17:16;1.40;97.10
14489;DHT22;7330;50.804;4.550;2023-02-28T05:19:43;1.50;97.30
14489;DHT22;7330;50.804;4.550;2023-02-28T05:22:12;1.50;97.30
14489;DHT22;7330;50.804;4.550;2023-02-28T05:24:39;1.40;97.30
14489;DHT22;7330;50.804;4.550;2023-02-28T05:27:07;1.50;97.30
14489;DHT22;7330;50.804;4.550;2023-02-28T05:29:34;1.50;97.40
14489;DHT22;7330;50.804;4.550;2023-02-28T05:32:07;1.50;97.40
14489;DHT22;7330;50.804;4.550;2023-02-28T05:34:35;1.50;97.40
14489;DHT22;7330;50.804;4.550;2023-02-28T05:39:32;1.40;97.60
14489;DHT22;7330;50.804;4.550;2023-02-28T05:41:59;1.50;97.70
14489;DHT22;7330;50.804;4.550;2023-02-28T05:44:26;1.50;97.70
14489;DHT22;7330;50.804;4.550;2023-02-28T05:49:20;1.50;97.80
14489;DHT22;7330;50.804;4.550;2023-02-28T05:51:48;1.40;97.90
14489;DHT22;7330;50.804;4.550;2023-02-28T05:54:14;1.50;97.90
14489;DHT22;7330;50.804;4.550;2023-02-28T05:56:41;1.50;98.00
14489;DHT22;7330;50.804;4.550;2023-02-28T06:01:37;1.50;98.10
14489;DHT22;7330;50.804;4.550;2023-02-28T06:04:05;1.40;98.20
14489;DHT22;7330;50.804;4.550;2023-02-28T06:06:32;1.50;98.30
14489;DHT22;7330;50.804;4.550;2023-02-28T06:09:00;1.50;98.30
14489;DHT22;7330;50.804;4.550;2023-02-28T06:11:27;1.50;98.30
14489;DHT22;7330;50.804;4.550;2023-02-28T06:13:54;1.50;98.40
14489;DHT22;7330;50.804;4.550;2023-02-28T06:16:22;1.50;98.30
14489;DHT22;7330;50.804;4.550;2023-02-28T06:18:49;1.50;98.40
14489;DHT22;7330;50.804;4.550;2023-02-28T06:21:16;1.50;98.40
14489;DHT22;7330;50.804;4.550;2023-02-28T06:23:42;1.50;98.50
14489;DHT22;7330;50.804;4.550;2023-02-28T06:26:10;1.50;98.60
14489;DHT22;7330;50.804;4.550;2023-02-28T06:28:37;1.50;98.60
14489;DHT22;7330;50.804;4.550;2023-02-28T06:33:31;1.50;98.70
14489;DHT22;7330;50.804;4.550;2023-02-28T06:35:58;1.50;98.70
14489;DHT22;7330;50.804;4.550;2023-02-28T06:38:25;1.50;98.70
14489;DHT22;7330;50.804;4.550;2023-02-28T06:45:47;1.60;98.90
14489;DHT22;7330;50.804;4.550;2023-02-28T06:50:40;1.60;99.10
14489;DHT22;7330;50.804;4.550;2023-02-28T06:53:07;1.70;99.20
14489;DHT22;7330;50.804;4.550;2023-02-28T06:55:34;1.80;99.30
14489;DHT22;7330;50.804;4.550;2023-02-28T07:00:28;1.80;99.30
14489;DHT22;7330;50.804;4.550;2023-02-28T07:02:56;1.90;99.50
14489;DHT22;7330;50.804;4.550;2023-02-28T07:07:49;2.10;99.60
14489;DHT22;7330;50.804;4.550;2023-02-28T07:10:18;2.20;99.70
14489;DHT22;7330;50.804;4.550;2023-02-28T07:12:45;2.40;99.60
14489;DHT22;7330;50.804;4.550;2023-02-28T07:15:11;2.40;99.50
14489;DHT22;7330;50.804;4.550;2023-02-28T07:20:07;2.80;99.50
14489;DHT22;7330;50.804;4.550;2023-02-28T07:22:34;2.90;99.30
14489;DHT22;7330;50.804;4.550;2023-02-28T07:29:55;3.40;99.30
14489;DHT22;7330;50.804;4.550;2023-02-28T07:34:52;3.70;98.80
14489;DHT22;7330;50.804;4.550;2023-02-28T07:37:21;3.90;98.80
14489;DHT22;7330;50.804;4.550;2023-02-28T07:39:48;4.10;98.20
14489;DHT22;7330;50.804;4.550;2023-02-28T07:42:15;4.20;98.30
14489;DHT22;7330;50.804;4.550;2023-02-28T07:44:42;4.40;97.50
14489;DHT22;7330;50.804;4.550;2023-02-28T07:47:09;4.50;97.30
14489;DHT22;7330;50.804;4.550;2023-02-28T07:49:36;4.70;97.30
14489;DHT22;7330;50.804;4.550;2023-02-28T07:52:03;4.80;97.20
14489;DHT22;7330;50.804;4.550;2023-02-28T07:56:58;5.00;96.00
14489;DHT22;7330;50.804;4.550;2023-02-28T07:59:28;5.10;95.80
14489;DHT22;7330;50.804;4.550;2023-02-28T08:04:22;5.30;95.60
14489;DHT22;7330;50.804;4.550;2023-02-28T08:06:48;5.40;95.20
14489;DHT22;7330;50.804;4.550;2023-02-28T08:09:17;5.40;94.90
14489;DHT22;7330;50.804;4.550;2023-02-28T08:11:44;5.50;94.80
14489;DHT22;7330;50.804;4.550;2023-02-28T08:14:12;5.50;94.60
14489;DHT22;7330;50.804;4.550;2023-02-28T08:19:06;5.70;93.90
14489;DHT22;7330;50.804;4.550;2023-02-28T08:21:32;5.60;93.10
14489;DHT22;7330;50.804;4.550;2023-02-28T08:23:59;5.60;93.00
14489;DHT22;7330;50.804;4.550;2023-02-28T08:26:26;5.60;92.90
14489;DHT22;7330;50.804;4.550;2023-02-28T08:28:53;5.70;93.00
14489;DHT22;7330;50.804;4.550;2023-02-28T08:31:21;5.70;93.10
14489;DHT22;7330;50.804;4.550;2023-02-28T08:33:48;5.80;92.90
14489;DHT22;7330;50.804;4.550;2023-02-28T08:36:16;5.90;92.70
14489;DHT22;7330;50.804;4.550;2023-02-28T08:41:12;6.00;91.40
14489;DHT22;7330;50.804;4.550;2023-02-28T08:43:39;6.10;91.80
14489;DHT22;7330;50.804;4.550;2023-02-28T08:46:06;6.20;91.50
14489;DHT22;7330;50.804;4.550;2023-02-28T08:48:35;6.30;91.30
14489;DHT22;7330;50.804;4.550;2023-02-28T08:51:03;6.40;90.90
14489;DHT22;7330;50.804;4.550;2023-02-28T08:58:24;6.70;88.80
14489;DHT22;7330;50.804;4.550;2023-02-28T09:00:52;6.90;88.60
14489;DHT22;7330;50.804;4.550;2023-02-28T09:03:18;6.90;88.20
14489;DHT22;7330;50.804;4.550;2023-02-28T09:05:53;7.10;87.10
14489;DHT22;7330;50.804;4.550;2023-02-28T09:08:20;7.20;87.40
14489;DHT22;7330;50.804;4.550;2023-02-28T09:10:47;7.30;86.50
14489;DHT22;7330;50.804;4.550;2023-02-28T09:13:13;7.40;84.60
14489;DHT22;7330;50.804;4.550;2023-02-28T09:15:40;7.50;84.60
14489;DHT22;7330;50.804;4.550;2023-02-28T09:20:35;7.70;83.00
14489;DHT22;7330;50.804;4.550;2023-02-28T09:23:04;7.80;82.70
14489;DHT22;7330;50.804;4.550;2023-02-28T09:25:31;7.90;82.50
14489;DHT22;7330;50.804;4.550;2023-02-28T09:30:25;7.90;80.20
14489;DHT22;7330;50.804;4.550;2023-02-28T09:32:52;7.90;79.30
14489;DHT22;7330;50.804;4.550;2023-02-28T09:35:19;7.80;77.10
14489;DHT22;7330;50.804;4.550;2023-02-28T09:37:46;7.80;77.70
14489;DHT22;7330;50.804;4.550;2023-02-28T09:40:14;7.80;76.90
14489;DHT22;7330;50.804;4.550;2023-02-28T09:45:12;7.70;72.90
14489;DHT22;7330;50.804;4.550;2023-02-28T09:47:42;7.60;72.70
14489;DHT22;7330;50.804;4.550;2023-02-28T09:52:37;7.70;73.40
14489;DHT22;7330;50.804;4.550;2023-02-28T09:55:11;7.80;74.10
14489;DHT22;7330;50.804;4.550;2023-02-28T09:57:46;7.90;73.10
14489;DHT22;7330;50.804;4.550;2023-02-28T10:00:13;8.00;72.40
14489;DHT22;7330;50.804;4.550;2023-02-28T10:02:47;8.00;68.10
14489;DHT22;7330;50.804;4.550;2023-02-28T10:05:15;7.90;66.90
14489;DHT22;7330;50.804;4.550;2023-02-28T10:07:51;7.90;67.70
14489;DHT22;7330;50.804;4.550;2023-02-28T10:10:23;7.90;65.70
14489;DHT22;7330;50.804;4.550;2023-02-28T10:15:21;8.10;67.10
14489;DHT22;7330;50.804;4.550;2023-02-28T10:22:50;7.90;63.00
14489;DHT22;7330;50.804;4.550;2023-02-28T10:25:18;8.00;64.20
14489;DHT22;7330;50.804;4.550;2023-02-28T10:27:45;8.00;64.90
14489;DHT22;7330;50.804;4.550;2023-02-28T10:30:13;8.10;63.70
14489;DHT22;7330;50.804;4.550;2023-02-28T10:32:43;7.90;60.50
14489;DHT22;7330;50.804;4.550;2023-02-28T10:37:41;7.80;60.90
14489;DHT22;7330;50.804;4.550;2023-02-28T10:40:24;7.70;59.80
14489;DHT22;7330;50.804;4.550;2023-02-28T10:42:54;7.60;59.70
14489;DHT22;7330;50.804;4.550;2023-02-28T10:47:52;7.50;59.90
14489;DHT22;7330;50.804;4.550;2023-02-28T10:50:32;7.50;60.10
14489;DHT22;7330;50.804;4.550;2023-02-28T10:53:13;7.40;60.30
14489;DHT22;7330;50.804;4.550;2023-02-28T10:55:41;7.30;61.20
14489;DHT22;7330;50.804;4.550;2023-02-28T10:58:19;7.30;60.50
14489;DHT22;7330;50.804;4.550;2023-02-28T11:00:46;7.20;60.40
14489;DHT22;7330;50.804;4.550;2023-02-28T11:03:23;7.20;59.80
14489;DHT22;7330;50.804;4.550;2023-02-28T11:08:18;7.10;60.20
14489;DHT22;7330;50.804;4.550;2023-02-28T11:10:45;7.00;59.70
14489;DHT22;7330;50.804;4.550;2023-02-28T11:13:16;7.00;59.70
14489;DHT22;7330;50.804;4.550;2023-02-28T11:15:49;6.80;59.80
14489;DHT22;7330;50.804;4.550;2023-02-28T11:20:46;6.80;61.10
14489;DHT22;7330;50.804;4.550;2023-02-28T11:23:15;6.80;61.10
14489;DHT22;7330;50.804;4.550;2023-02-28T11:25:46;6.80;62.10
14489;DHT22;7330;50.804;4.550;2023-02-28T11:33:18;6.80;61.60
14489;DHT22;7330;50.804;4.550;2023-02-28T11:38:15;6.80;62.40
14489;DHT22;7330;50.804;4.550;2023-02-28T11:40:43;6.80;61.50
14489;DHT22;7330;50.804;4.550;2023-02-28T11:43:17;6.80;62.20
14489;DHT22;7330;50.804;4.550;2023-02-28T11:48:14;6.90;62.20
14489;DHT22;7330;50.804;4.550;2023-02-28T11:50:45;6.90;60.10
14489;DHT22;7330;50.804;4.550;2023-02-28T11:53:19;6.90;59.50
14489;DHT22;7330;50.804;4.550;2023-02-28T11:55:49;6.90;60.30
14489;DHT22;7330;50.804;4.550;2023-02-28T11:58:21;6.90;59.50
14489;DHT22;7330;50.804;4.550;2023-02-28T12:03:22;6.90;58.50
14489;DHT22;7330;50.804;4.550;2023-02-28T12:05:54;6.90;59.20
14489;DHT22;7330;50.804;4.550;2023-02-28T12:08:31;6.90;58.50
14489;DHT22;7330;50.804;4.550;2023-02-28T12:11:06;6.80;58.00
14489;DHT22;7330;50.804;4.550;2023-02-28T12:13:38;6.90;58.10
14489;DHT22;7330;50.804;4.550;2023-02-28T12:21:31;6.80;58.00
14489;DHT22;7330;50.804;4.550;2023-02-28T12:26:32;6.90;59.20
14489;DHT22;7330;50.804;4.550;2023-02-28T12:31:28;6.90;59.10
14489;DHT22;7330;50.804;4.550;2023-02-28T12:34:06;6.90;59.70
14489;DHT22;7330;50.804;4.550;2023-02-28T12:36:36;6.90;58.40
14489;DHT22;7330;50.804;4.550;2023-02-28T12:39:04;6.90;58.10
14489;DHT22;7330;50.804;4.550;2023-02-28T12:41:34;6.80;58.30
14489;DHT22;7330;50.804;4.550;2023-02-28T12:44:04;6.80;58.70
14489;DHT22;7330;50.804;4.550;2023-02-28T12:46:33;6.80;57.50
14489;DHT22;7330;50.804;4.550;2023-02-28T12:49:04;6.70;57.80
14489;DHT22;7330;50.804;4.550;2023-02-28T12:54:01;6.70;57.50
14489;DHT22;7330;50.804;4.550;2023-02-28T12:56:35;6.70;57.60
14489;DHT22;7330;50.804;4.550;2023-02-28T12:59:07;6.80;57.80
14489;DHT22;7330;50.804;4.550;2023-02-28T13:01:48;6.80;58.00
14489;DHT22;7330;50.804;4.550;2023-02-28T13:04:28;6.90;58.50
14489;DHT22;7330;50.804;4.550;2023-02-28T13:09:25;6.90;58.10
14489;DHT22;7330;50.804;4.550;2023-02-28T13:11:56;6.90;57.90
14489;DHT22;7330;50.804;4.550;2023-02-28T13:14:25;7.00;57.80
14489;DHT22;7330;50.804;4.550;2023-02-28T13:21:46;7.00;57.00
14489;DHT22;7330;50.804;4.550;2023-02-28T13:24:35;6.90;56.60
14489;DHT22;7330;50.804;4.550;2023-02-28T13:40:24;6.90;56.80
14489;DHT22;7330;50.804;4.550;2023-02-28T13:42:52;7.00;57.30
14489;DHT22;7330;50.804;4.550;2023-02-28T13:45:20;7.00;57.80
14489;DHT22;7330;50.804;4.550;2023-02-28T13:47:51;7.00;56.60
14489;DHT22;7330;50.804;4.550;2023-02-28T13:50:24;7.00;57.10
14489;DHT22;7330;50.804;4.550;2023-02-28T13:52:54;7.00;57.10
14489;DHT22;7330;50.804;4.550;2023-02-28T13:55:26;7.00;57.30
14489;DHT22;7330;50.804;4.550;2023-02-28T14:05:46;7.00;56.70
14489;DHT22;7330;50.804;4.550;2023-02-28T14:08:15;6.90;56.80
14489;DHT22;7330;50.804;4.550;2023-02-28T14:10:45;6.90;55.60
14489;DHT22;7330;50.804;4.550;2023-02-28T14:13:14;6.90;56.40
14489;DHT22;7330;50.804;4.550;2023-02-28T14:16:02;7.00;57.20
14489;DHT22;7330;50.804;4.550;2023-02-28T14:18:30;7.00;57.50
14489;DHT22;7330;50.804;4.550;2023-02-28T14:23:30;6.90;56.90
14489;DHT22;7330;50.804;4.550;2023-02-28T14:28:40;6.90;57.10
14489;DHT22;7330;50.804;4.550;2023-02-28T14:31:10;7.00;57.20
14489;DHT22;7330;50.804;4.550;2023-02-28T14:33:45;7.00;57.00
14489;DHT22;7330;50.804;4.550;2023-02-28T14:38:41;6.90;56.00
14489;DHT22;7330;50.804;4.550;2023-02-28T14:41:14;6.80;55.90
14489;DHT22;7330;50.804;4.550;2023-02-28T14:43:48;6.80;56.00
14489;DHT22;7330;50.804;4.550;2023-02-28T14:46:15;6.80;56.00
14489;DHT22;7330;50.804;4.550;2023-02-28T14:48:44;6.80;56.30
14489;DHT22;7330;50.804;4.550;2023-02-28T14:51:11;6.80;56.70
14489;DHT22;7330;50.804;4.550;2023-02-28T14:53:38;6.80;56.10
14489;DHT22;7330;50.804;4.550;2023-02-28T14:56:05;6.80;56.60
14489;DHT22;7330;50.804;4.550;2023-02-28T14:58:34;6.90;57.20
14489;DHT22;7330;50.804;4.550;2023-02-28T15:03:31;6.90;56.70
14489;DHT22;7330;50.804;4.550;2023-02-28T15:08:26;6.80;55.80
14489;DHT22;7330;50.804;4.550;2023-02-28T15:10:55;6.80;56.00
14489;DHT22;7330;50.804;4.550;2023-02-28T15:13:22;6.80;56.60
14489;DHT22;7330;50.804;4.550;2023-02-28T15:15:50;6.80;56.40
14489;DHT22;7330;50.804;4.550;2023-02-28T15:18:22;6.80;56.80
14489;DHT22;7330;50.804;4.550;2023-02-28T15:20:51;6.80;56.40
14489;DHT22;7330;50.804;4.550;2023-02-28T15:23:18;6.80;56.20
14489;DHT22;7330;50.804;4.550;2023-02-28T15:28:14;6.70;56.80
14489;DHT22;7330;50.804;4.550;2023-02-28T15:30:51;6.70;56.70
14489;DHT22;7330;50.804;4.550;2023-02-28T15:33:18;6.70;56.50
14489;DHT22;7330;50.804;4.550;2023-02-28T15:35:45;6.70;56.90
14489;DHT22;7330;50.804;4.550;2023-02-28T15:38:16;6.80;57.10
14489;DHT22;7330;50.804;4.550;2023-02-28T15:40:44;6.70;57.30
14489;DHT22;7330;50.804;4.550;2023-02-28T15:43:22;6.80;57.60
14489;DHT22;7330;50.804;4.550;2023-02-28T15:45:50;6.70;57.90
14489;DHT22;7330;50.804;4.550;2023-02-28T15:48:19;6.80;58.00
14489;DHT22;7330;50.804;4.550;2023-02-28T15:50:47;6.70;58.50
14489;DHT22;7330;50.804;4.550;2023-02-28T15:55:43;6.80;58.60
14489;DHT22;7330;50.804;4.550;2023-02-28T15:58:11;6.80;58.90
14489;DHT22;7330;50.804;4.550;2023-02-28T16:00:38;6.70;58.80
14489;DHT22;7330;50.804;4.550;2023-02-28T16:05:46;6.70;59.20
14489;DHT22;7330;50.804;4.550;2023-02-28T16:08:32;6.70;59.40
14489;DHT22;7330;50.804;4.550;2023-02-28T16:11:00;6.70;59.10
14489;DHT22;7330;50.804;4.550;2023-02-28T16:13:27;6.70;59.20
14489;DHT22;7330;50.804;4.550;2023-02-28T16:15:54;6.70;59.40
14489;DHT22;7330;50.804;4.550;2023-02-28T16:18:21;6.70;60.00
14489;DHT22;7330;50.804;4.550;2023-02-28T16:23:15;6.60;60.00
14489;DHT22;7330;50.804;4.550;2023-02-28T16:25:42;6.50;59.90
14489;DHT22;7330;50.804;4.550;2023-02-28T16:28:12;6.50;59.70
14489;DHT22;7330;50.804;4.550;2023-02-28T16:30:42;6.50;59.50
14489;DHT22;7330;50.804;4.550;2023-02-28T16:33:09;6.50;59.40
14489;DHT22;7330;50.804;4.550;2023-02-28T16:35:36;6.40;59.70
14489;DHT22;7330;50.804;4.550;2023-02-28T16:40:29;6.40;59.80
14489;DHT22;7330;50.804;4.550;2023-02-28T16:45:28;6.40;60.90
14489;DHT22;7330;50.804;4.550;2023-02-28T16:47:55;6.40;61.40
14489;DHT22;7330;50.804;4.550;2023-02-28T16:50:22;6.30;61.40
14489;DHT22;7330;50.804;4.550;2023-02-28T16:52:49;6.30;61.50
14489;DHT22;7330;50.804;4.550;2023-02-28T16:55:17;6.30;61.60
14489;DHT22;7330;50.804;4.550;2023-02-28T16:57:44;6.20;61.50
14489;DHT22;7330;50.804;4.550;2023-02-28T17:00:13;6.20;61.80
14489;DHT22;7330;50.804;4.550;2023-02-28T17:02:41;6.20;62.20
14489;DHT22;7330;50.804;4.550;2023-02-28T17:05:08;6.20;62.50
14489;DHT22;7330;50.804;4.550;2023-02-28T17:07:35;6.10;62.90
14489;DHT22;7330;50.804;4.550;2023-02-28T17:10:04;6.10;63.00
14489;DHT22;7330;50.804;4.550;2023-02-28T17:12:37;6.10;63.00
14489;DHT22;7330;50.804;4.550;2023-02-28T17:15:04;6.00;62.90
14489;DHT22;7330;50.804;4.550;2023-02-28T17:17:31;6.00;62.90
14489;DHT22;7330;50.804;4.550;2023-02-28T17:20:00;6.00;62.90
14489;DHT22;7330;50.804;4.550;2023-02-28T17:22:26;6.00;62.90
14489;DHT22;7330;50.804;4.550;2023-02-28T17:24:53;5.90;62.80
14489;DHT22;7330;50.804;4.550;2023-02-28T17:27:22;5.90;63.00
14489;DHT22;7330;50.804;4.550;2023-02-28T17:29:49;5.80;63.30
14489;DHT22;7330;50.804;4.550;2023-02-28T17:34:44;5.90;63.80
14489;DHT22;7330;50.804;4.550;2023-02-28T17:37:12;5.80;63.80
14489;DHT22;7330;50.804;4.550;2023-02-28T17:39:39;5.80;63.90
14489;DHT22;7330;50.804;4.550;2023-02-28T17:42:06;5.80;64.20
14489;DHT22;7330;50.804;4.550;2023-02-28T17:44:33;5.80;64.50
14489;DHT22;7330;50.804;4.550;2023-02-28T17:47:00;5.70;65.00
14489;DHT22;7330;50.804;4.550;2023-02-28T17:49:26;5.70;65.20
14489;DHT22;7330;50.804;4.550;2023-02-28T17:56:49;5.60;65.60
14489;DHT22;7330;50.804;4.550;2023-02-28T17:59:16;5.60;65.80
14489;DHT22;7330;50.804;4.550;2023-02-28T18:01:43;5.50;65.90
14489;DHT22;7330;50.804;4.550;2023-02-28T18:04:09;5.50;66.00
14489;DHT22;7330;50.804;4.550;2023-02-28T18:06:36;5.50;66.00
14489;DHT22;7330;50.804;4.550;2023-02-28T18:09:11;5.40;65.90
14489;DHT22;7330;50.804;4.550;2023-02-28T18:14:10;5.40;66.40
14489;DHT22;7330;50.804;4.550;2023-02-28T18:16:37;5.40;66.40
14489;DHT22;7330;50.804;4.550;2023-02-28T18:19:04;5.30;66.30
14489;DHT22;7330;50.804;4.550;2023-02-28T18:21:31;5.30;66.50
14489;DHT22;7330;50.804;4.550;2023-02-28T18:23:58;5.30;66.60
14489;DHT22;7330;50.804;4.550;2023-02-28T18:26:24;5.20;66.80
14489;DHT22;7330;50.804;4.550;2023-02-28T18:28:51;5.20;67.10
14489;DHT22;7330;50.804;4.550;2023-02-28T18:31:19;5.10;67.00
14489;DHT22;7330;50.804;4.550;2023-02-28T18:33:47;5.10;67.10
14489;DHT22;7330;50.804;4.550;2023-02-28T18:36:14;5.10;67.30
14489;DHT22;7330;50.804;4.550;2023-02-28T18:38:41;5.10;67.20
14489;DHT22;7330;50.804;4.550;2023-02-28T18:41:08;5.00;67.20
14489;DHT22;7330;50.804;4.550;2023-02-28T18:43:35;5.00;67.40
14489;DHT22;7330;50.804;4.550;2023-02-28T18:46:03;5.00;67.40
14489;DHT22;7330;50.804;4.550;2023-02-28T18:48:32;4.90;67.50
14489;DHT22;7330;50.804;4.550;2023-02-28T18:51:04;4.90;67.70
14489;DHT22;7330;50.804;4.550;2023-02-28T18:53:31;4.90;68.00
14489;DHT22;7330;50.804;4.550;2023-02-28T18:55:59;4.90;68.00
14489;DHT22;7330;50.804;4.550;2023-02-28T18:58:26;4.90;68.00
14489;DHT22;7330;50.804;4.550;2023-02-28T19:00:54;4.90;68.00
14489;DHT22;7330;50.804;4.550;2023-02-28T19:03:21;4.80;68.50
14489;DHT22;7330;50.804;4.550;2023-02-28T19:08:19;4.80;69.10
14489;DHT22;7330;50.804;4.550;2023-02-28T19:10:45;4.80;69.10
14489;DHT22;7330;50.804;4.550;2023-02-28T19:13:12;4.80;69.00
14489;DHT22;7330;50.804;4.550;2023-02-28T19:15:39;4.70;69.10
14489;DHT22;7330;50.804;4.550;2023-02-28T19:18:06;4.70;69.40
14489;DHT22;7330;50.804;4.550;2023-02-28T19:20:33;4.60;69.60
14489;DHT22;7330;50.804;4.550;2023-02-28T19:22:59;4.50;69.70
14489;DHT22;7330;50.804;4.550;2023-02-28T19:25:28;4.60;70.10
14489;DHT22;7330;50.804;4.550;2023-02-28T19:30:22;4.50;70.50
14489;DHT22;7330;50.804;4.550;2023-02-28T19:32:49;4.50;70.80
14489;DHT22;7330;50.804;4.550;2023-02-28T19:37:43;4.40;71.00
14489;DHT22;7330;50.804;4.550;2023-02-28T19:40:10;4.40;71.20
14489;DHT22;7330;50.804;4.550;2023-02-28T19:42:40;4.30;71.20
14489;DHT22;7330;50.804;4.550;2023-02-28T19:45:07;4.30;71.20
14489;DHT22;7330;50.804;4.550;2023-02-28T19:47:37;4.30;71.60
14489;DHT22;7330;50.804;4.550;2023-02-28T19:52:32;4.30;72.20
14489;DHT22;7330;50.804;4.550;2023-02-28T19:54:59;4.20;72.30
14489;DHT22;7330;50.804;4.550;2023-02-28T19:57:26;4.20;72.30
14489;DHT22;7330;50.804;4.550;2023-02-28T19:59:54;4.10;72.20
14489;DHT22;7330;50.804;4.550;2023-02-28T20:02:21;4.10;72.40
14489;DHT22;7330;50.804;4.550;2023-02-28T20:04:48;4.10;72.60
14489;DHT22;7330;50.804;4.550;2023-02-28T20:07:15;4.10;72.70
14489;DHT22;7330;50.804;4.550;2023-02-28T20:09:42;4.10;73.20
14489;DHT22;7330;50.804;4.550;2023-02-28T20:12:09;4.10;73.40
14489;DHT22;7330;50.804;4.550;2023-02-28T20:14:36;4.00;73.30
14489;DHT22;7330;50.804;4.550;2023-02-28T20:17:04;4.00;73.30
14489;DHT22;7330;50.804;4.550;2023-02-28T20:19:32;4.00;73.80
14489;DHT22;7330;50.804;4.550;2023-02-28T20:21:59;4.00;74.10
14489;DHT22;7330;50.804;4.550;2023-02-28T20:24:27;4.00;74.00
14489;DHT22;7330;50.804;4.550;2023-02-28T20:26:53;3.90;74.00
14489;DHT22;7330;50.804;4.550;2023-02-28T20:29:21;3.90;74.00